Station: Oenpelli Airport

  Atmospheric Gas Attenuation - ITU Rec 676-11   --------------- db/100km ---------------
Date Time Temp RH % AH g/m3 Dew Point Wind Direction Speed kph Gust kph Barometer mB Rainfall Since 9am 24GHz 47GHz 76GHz 122GHz 134GHz 241GHz
07 04:14 20.4 89 15.74 18.5 2 2 1013.1 0 34.4 36.0 66.3 175.1 187.6 650.6
07 04:10 20.4 88 15.57 18.3 0 0 1013.1 0 34.1 35.7 65.5 173.0 185.0 641.7
07 04:00 20.5 88 15.66 18.4 0 0 1010.5 0 34.3 35.7 65.7 173.5 185.8 644.3
07 03:50 20.7 87 15.66 18.4 0 0 1013.1 0 34.2 35.7 65.6 173.4 185.6 643.8
07 03:40 20.6 87 15.57 18.3 0 0 1013.1 0 34.1 35.6 65.3 172.5 184.5 640.0
07 03:30 20.7 86 15.48 18.3 0 0 1010.7 0 33.9 35.3 64.7 170.9 182.6 633.3
07 03:20 20.8 84 15.21 18.1 0 0 1013.1 0 33.3 34.8 63.5 167.7 178.7 619.6
07 03:10 20.8 84 15.21 18 0 0 1013.1 0 33.3 34.8 63.5 167.7 178.7 619.6
07 03:00 21 84 15.39 18.2 0 0 1010.9 0 33.7 35.0 64.0 169.1 180.6 626.3
07 02:50 21.1 83 15.29 18.1 0 0 1013.1 0 33.4 34.9 63.6 168.0 179.1 621.3
07 02:40 21.1 82 15.11 17.9 0 0 1013.1 0 33.0 34.5 62.8 165.8 176.5 612.1
07 02:30 21.3 82 15.28 18.1 2 2 1011.2 0 33.4 34.7 63.3 167.2 178.3 618.3
07 02:20 21.1 81 14.92 17.7 2 4 1013.1 0 32.6 34.2 61.9 163.6 173.7 602.3
07 02:10 21.2 80 14.82 17.6 2 4 1013.1 0 32.4 34.0 61.4 162.2 172.0 596.5
07 02:00 21.3 80 14.91 17.7 0 0 1011.4 0 32.6 34.0 61.6 162.8 172.9 599.5
07 01:50 21.4 80 15 17.8 0 0 1013.1 0 32.8 34.2 62.1 163.9 174.2 604.0
07 01:40 21.4 79 14.81 17.6 0 0 1013.1 0 32.4 33.9 61.2 161.6 171.4 594.4
07 01:30 21.5 77 14.52 17.3 2 4 1011.6 0 31.8 33.3 59.8 157.8 166.8 578.4
07 01:20 22.1 75 14.64 17.6 4 4 1013.1 0 32.0 33.3 59.9 158.2 167.4 580.5
07 01:10 22.1 75 14.64 17.6 4 6 1013.1 0 32.0 33.3 59.9 158.2 167.4 580.5
07 01:00 22.3 76 15.01 17.9 4 6 1011.9 0 32.7 33.8 61.3 161.9 172.1 597.0
07 00:50 22.5 75 14.98 18 6 6 1013.1 0 32.6 33.8 61.1 161.3 171.4 594.4
07 00:40 22.6 76 15.27 18.1 4 4 1013.1 0 33.3 34.2 62.3 164.5 175.3 608.2
07 00:30 22.4 75 14.89 17.8 2 4 1012.2 0 32.5 33.6 60.7 160.4 170.2 590.3
07 00:20 22.4 73 14.5 17.3 2 4 1013.1 0 31.6 32.9 59.1 156.0 164.7 571.3
07 00:10 22.6 74 14.86 17.7 4 4 1013.1 0 32.4 33.5 60.5 159.7 169.4 587.7
07 00:00 22.6 76 15.27 18.2 2 6 1012.1 0 33.3 34.2 62.2 164.4 175.2 607.8
06 23:50 22.3 75 14.81 17.6 0 0 1013.1 0 32.3 33.5 60.5 159.8 169.4 587.5
06 23:40 22.2 75 14.72 17.7 0 0 1013.1 0 32.1 33.4 60.2 158.9 168.3 583.7
06 23:30 22.1 77 15.03 17.9 0 0 1012.1 0 32.8 34.0 61.6 162.6 172.9 599.6
06 23:20 21.9 78 15.05 17.9 0 0 1013.1 0 32.8 34.1 61.9 163.4 173.7 602.6
06 23:10 21.9 78 15.05 17.9 0 0 1013.1 0 32.8 34.1 61.9 163.4 173.7 602.6
06 23:00 22 78 15.14 18 0 0 1012.1 0 33.0 34.2 62.1 164.1 174.7 606.0
06 22:50 22.1 76 14.83 17.8 0 0 1013.1 0 32.4 33.6 60.7 160.4 170.1 590.0
06 22:40 22.5 75 14.98 17.8 0 0 1013.1 0 32.6 33.8 61.1 161.3 171.4 594.4
06 22:30 22.5 75 14.98 17.8 0 0 1012.1 0 32.6 33.7 61.0 161.2 171.2 594.0
06 22:20 22.5 70 13.98 16.9 0 0 1013.1 0 30.5 32.0 56.8 149.8 157.2 545.1
06 22:10 22.6 69 13.86 16.8 2 4 1013.1 0 30.3 31.8 56.2 148.3 155.3 538.5
06 22:00 22.4 69 13.7 16.4 0 0 1011.7 0 29.9 31.5 55.6 146.7 153.3 531.6
06 21:50 22.6 66 13.26 16.1 0 0 1013.1 0 29.0 30.8 53.7 141.5 147.1 509.7
06 21:40 23.1 66 13.64 16.4 0 0 1013.1 0 29.8 31.2 54.9 144.8 151.3 524.5
06 21:30 23.4 66 13.88 16.7 0 0 1011.5 0 30.2 31.4 55.6 146.8 153.8 533.3
06 21:20 23.4 67 14.09 16.9 0 0 1013.1 0 30.7 31.9 56.6 149.3 156.9 544.1
06 21:10 23.2 64 13.3 16 0 0 1013.1 0 29.0 30.6 53.4 140.9 146.5 507.7
06 21:00 23.5 63 13.32 16.1 0 0 1011 0 29.1 30.5 53.2 140.3 145.9 505.9
06 20:50 23.9 61 13.2 15.9 0 0 1013.1 0 28.8 30.2 52.5 138.6 143.8 498.5
06 20:40 24.2 59 12.98 15.9 0 0 1013.1 0 28.3 29.7 51.4 135.7 140.3 486.4
06 20:30 24.2 59 12.98 15.9 0 0 1010.7 0 28.3 29.6 51.3 135.4 140.1 485.5
06 20:20 24.8 58 13.2 16.2 0 0 1013.1 0 28.7 29.9 51.9 137.0 142.1 492.8
06 20:10 25 59 13.58 16.4 2 4 1013.1 0 29.5 30.4 53.3 140.7 146.8 509.1
06 20:00 25.1 59 13.66 16.5 2 6 1010.3 0 29.7 30.4 53.5 141.1 147.4 511.1
06 19:50 25 57 13.12 15.9 0 0 1013.1 0 28.5 29.7 51.5 135.8 140.7 487.9
06 19:40 25.1 55 12.73 15.4 0 0 1013.1 0 27.7 29.0 49.9 131.5 135.5 469.5
06 19:30 25.4 54 12.71 15.4 2 6 1010 0 27.6 28.8 49.5 130.4 134.4 465.7
06 19:20 25.8 51 12.28 14.9 2 2 1013.1 0 26.7 28.1 47.7 125.7 128.5 445.3
06 19:10 26.2 49 12.06 14.9 4 6 1013.1 0 26.2 27.6 46.6 122.8 125.1 433.4
06 19:00 26.5 49 12.27 14.9 7 11 1009.5 0 26.7 27.7 47.1 124.0 126.9 439.8
06 18:50 27 47 12.1 15 6 9 1013.1 0 26.3 27.5 46.3 122.0 124.3 430.8
06 18:40 27.7 48 12.84 15.7 6 6 1013.1 0 27.8 28.4 48.7 128.4 132.4 459.2
06 18:30 28.4 46 12.79 15.7 9 13 1009.3 0 27.6 27.9 47.9 126.3 130.2 451.7
06 18:20 29 44 12.64 15.8 13 15 1013.1 0 27.3 27.7 47.2 124.3 127.8 443.2
06 18:10 29.6 45 13.36 16.4 11 13 1013.1 0 28.7 28.6 49.5 130.6 135.7 470.8
06 18:00 30.1 44 13.42 16.5 11 17 1009.1 0 28.8 28.4 49.2 129.9 135.1 469.0
06 17:50 30.6 41 12.85 16.2 13 19 1013.1 0 27.6 27.5 47.0 123.9 127.8 443.2
06 17:40 30.9 42 13.37 16.5 13 17 1013.1 0 28.6 28.2 48.7 128.6 133.6 463.6
06 17:30 31 43 13.76 17 15 20 1009 0 29.5 28.6 49.9 131.8 137.7 478.2
06 17:20 31.5 41 13.48 17 17 20 1013.1 0 28.8 28.1 48.8 128.7 133.9 464.8
06 17:10 31.8 42 14.03 17.3 13 17 1013.1 0 29.9 28.9 50.6 133.7 140.1 486.5
06 17:00 31.5 41 13.48 17 15 20 1008.8 0 28.8 28.0 48.6 128.2 133.5 463.3
06 16:50 31.9 41 13.77 17.3 15 17 1013.1 0 29.4 28.5 49.6 130.9 136.7 474.8
06 16:40 32 41 13.85 17.1 13 17 1013.1 0 29.6 28.5 49.9 131.6 137.5 477.6
06 16:30 31.8 40 13.36 16.9 13 22 1008.6 0 28.6 27.7 48.0 126.5 131.5 456.4
06 16:20 32.4 39 13.45 17 15 19 1013.1 0 28.7 27.8 48.1 127.0 132.0 458.4
06 16:10 32.2 40 13.65 17.2 17 20 1013.1 0 29.1 28.2 49.0 129.3 134.8 467.9
06 16:00 32.2 41 13.99 17.3 15 22 1008.5 0 29.9 28.5 50.0 132.1 138.4 480.7
06 15:50 32.5 40 13.87 17.5 15 17 1013.1 0 29.6 28.4 49.6 130.9 136.9 475.5
06 15:40 32.2 40 13.65 17.2 4 6 1013.1 0 29.1 28.2 49.0 129.3 134.8 467.9
06 15:30 32.9 39 13.82 17.1 11 19 1008.5 0 29.5 28.1 49.0 129.3 135.1 469.4
06 15:20 33.2 38 13.68 17.3 13 17 1013.1 0 29.1 27.9 48.5 128.0 133.4 463.4
06 15:10 33.3 36 13.02 16.6 13 17 1013.1 0 27.8 26.9 46.1 121.5 125.5 435.6
06 15:00 31.8 38 12.7 16.1 7 15 1008.8 0 27.2 26.8 45.6 120.2 123.7 429.1
06 14:50 32.2 37 12.63 16 7 11 1013.1 0 27.0 26.7 45.3 119.4 122.6 425.5
06 14:40 32.6 35 12.2 15.5 9 20 1013.1 0 26.1 25.9 43.5 114.8 117.0 406.0
06 14:30 33.3 36 13.02 16.6 7 15 1009.2 0 27.8 26.8 45.9 121.0 125.1 434.3
06 14:20 32.8 38 13.39 16.6 15 19 1013.1 0 28.6 27.6 47.7 125.8 130.6 453.6
06 14:10 32.3 39 13.38 16.9 6 7 1013.1 0 28.6 27.8 47.9 126.5 131.4 456.0
06 14:00 32.1 40 13.58 16.8 7 13 1009.6 0 29.0 28.0 48.6 128.3 133.7 464.3
06 13:50 31.3 41 13.34 16.8 11 13 1013.1 0 28.6 28.0 48.4 127.6 132.5 460.0
06 13:40 30.8 42 13.3 16.4 7 9 1013.1 0 28.5 28.1 48.5 128.0 132.9 461.2
06 13:30 31.5 40 13.15 16.3 11 19 1010.2 0 28.2 27.6 47.4 125.1 129.6 449.9
06 13:20 32.3 42 14.41 18.1 11 13 1013.1 0 30.7 29.3 51.8 136.6 143.9 499.7
06 13:10 30.9 44 14.01 17.5 9 9 1013.1 0 30.0 29.1 51.1 135.0 141.4 491.1
06 13:00 29.3 51 14.89 18.1 6 7 1010.7 0 31.9 31.0 55.5 146.6 155.4 539.6
06 12:50 29.1 51 14.73 18.2 7 7 1013.1 0 31.6 30.9 55.1 145.6 154.0 534.7
06 12:40 29.6 52 15.43 18.7 6 7 1013.1 0 33.0 31.8 57.6 152.1 162.1 563.1
06 12:30 29.5 53 15.65 18.9 6 9 1011.2 0 33.5 32.2 58.4 154.4 165.0 573.2
06 12:20 29.1 53 15.31 18.8 4 4 1013.1 0 32.8 31.8 57.5 151.8 161.6 561.2
06 12:10 30.1 49 14.94 18.2 4 4 1013.1 0 32.0 30.9 55.3 146.0 154.7 537.4
06 12:00 28.1 57 15.59 18.8 4 7 1011.8 0 33.5 32.6 59.3 156.6 167.3 581.0
06 11:50 27.9 58 15.69 19.1 0 2 1013.1 0 33.7 32.9 59.9 158.3 169.2 587.8

Last Refresh: 07-Aug-2020 07:22:53

Most of the information presented on this site is sourced from the Bureau of Meteorology.  Copyright in all material sourced from the Bureau of Meteorology resides with the Commonwealth of Australia.